Country
Station

 

Weather  for  Bodo Vi  -  Norway    Norway

  
8 °C (46 °F)
    
 
 

Current METAR for Bodo Vi is :

ENBO 181450Z 24032G43KT 8000 -SHRA FEW008 SCT015 BKN025 08/07 Q1002 TEMPO 23025KT 4000 SHRA BKN014CB

 

This is a report for Bodo Vi - Norway.
 
The report was made 7 minutes ago, at 14:50 UTC .
The wind was blowing at a speed of 16.5 meters per second (36.8 miles per hour) with gusts up to 22.1 meters per second (49.5 miles per hour) from west/southwest (240°).
 
The temperature was 8 °C (46 °F), with a dew-point at 7 °C (45 °F).
The atmospheric pressure was 1002 hPa (29.59 inHg).
The relative humidity was 93.4%.
 
There were a few clouds at a height of 244 meters (800 feet), scattered clouds at a height of 457 meters (1500 feet) and broken clouds at a height of 762 meters (2500 feet).
 
The overall visibility was 8.0 kilometers (5.0 miles).
 
Currently showers of light rain.

 
 
 
 

Country :   A   B   C   D   E   F   G   H   I   J   K   L   M   N   O   P   Q   R   S   T   U   V   W   Y   Z

 

Site Info  |  Disclaimer  |  Credits  |  Privacy
Contact us  |  Add to favorites
© 2013-2018 METARs - All rights reserved